createdAt,value
2023-03-11T00:00:19.059Z,94291.41
2023-03-11T00:02:48.388Z,94289.72
2023-03-11T00:05:39.653Z,94288.44
2023-03-11T00:08:09.279Z,94299.41
2023-03-11T00:10:41.813Z,94293.06
2023-03-11T00:13:30.019Z,94282.81
2023-03-11T00:15:57.705Z,94283.66
2023-03-11T00:18:27.295Z,94301.97
2023-03-11T00:20:55.662Z,94285.09
2023-03-11T00:23:22.670Z,94272.19
2023-03-11T00:25:49.358Z,94257.94
2023-03-11T00:28:17.030Z,94258.56
2023-03-11T00:30:45.974Z,94261.72
2023-03-11T00:33:15.263Z,94260.72
2023-03-11T00:35:42.993Z,94273.38
2023-03-11T00:38:15.067Z,94274.97
2023-03-11T00:40:43.325Z,94276.03
2023-03-11T00:43:10.270Z,94276.53
2023-03-11T00:45:37.237Z,94292.63
2023-03-11T00:48:04.615Z,94306.72
2023-03-11T00:50:33.438Z,94291.34
2023-03-11T00:53:01.278Z,94290.28
2023-03-11T00:55:31.345Z,94286.88
2023-03-11T00:58:00.544Z,94285.16
2023-03-11T01:00:29.396Z,94281.34
2023-03-11T01:02:57.377Z,94283.66
2023-03-11T01:05:27.610Z,94280.72
2023-03-11T01:07:54.198Z,94269.84
2023-03-11T01:10:20.853Z,94271.88
2023-03-11T01:12:48.245Z,94273.06
2023-03-11T01:15:22.166Z,94271.97
2023-03-11T01:17:48.786Z,94264.44
2023-03-11T01:20:15.990Z,94268.47
2023-03-11T01:22:43.107Z,94274.50
2023-03-11T01:25:13.934Z,94279.38
2023-03-11T01:27:40.959Z,94272.63
2023-03-11T01:30:08.409Z,94274.25
2023-03-11T01:32:35.240Z,94267.28
2023-03-11T01:35:01.864Z,94242.66
2023-03-11T01:37:28.534Z,94240.78
2023-03-11T01:39:55.153Z,94238.47
2023-03-11T01:42:21.873Z,94231.63
2023-03-11T01:44:48.530Z,94230.31
2023-03-11T01:47:31.833Z,94212.88
2023-03-11T01:49:58.782Z,94210.19
2023-03-11T01:52:25.528Z,94202.75
2023-03-11T01:54:52.200Z,94195.03
2023-03-11T01:57:18.820Z,94183.59
2023-03-11T01:59:51.969Z,94182.47
2023-03-11T02:02:31.706Z,94177.94
2023-03-11T02:05:02.092Z,94169.09
2023-03-11T02:07:28.873Z,94177.03
2023-03-11T02:09:55.507Z,94190.41
2023-03-11T02:12:22.804Z,94188.25
2023-03-11T02:14:52.756Z,94187.03
2023-03-11T02:17:19.694Z,94197.34
2023-03-11T02:20:28.019Z,94194.56
2023-03-11T02:22:56.888Z,94192.63
2023-03-11T02:25:42.532Z,94186.22
2023-03-11T02:28:14.027Z,94162.84
2023-03-11T02:30:43.857Z,94143.44
2023-03-11T02:33:12.436Z,94152.50
2023-03-11T02:35:39.093Z,94155.69
2023-03-11T02:38:05.727Z,94151.97
2023-03-11T02:40:48.007Z,94146.38
2023-03-11T02:43:18.014Z,94158.63
2023-03-11T02:45:47.592Z,94161.03
2023-03-11T02:48:15.712Z,94177.72
2023-03-11T02:50:46.092Z,94187.66
2023-03-11T02:53:13.323Z,94178.00
2023-03-11T02:55:40.027Z,94167.28
2023-03-11T02:58:06.673Z,94157.94
2023-03-11T03:00:33.316Z,94133.22
2023-03-11T03:03:00.391Z,94109.78
2023-03-11T03:05:27.392Z,94117.47
2023-03-11T03:07:54.213Z,94115.22
2023-03-11T03:10:22.675Z,94115.66
2023-03-11T03:12:49.347Z,94105.69
2023-03-11T03:15:16.350Z,94097.94
2023-03-11T03:17:43.248Z,94092.50
2023-03-11T03:20:10.574Z,94101.06
2023-03-11T03:22:38.210Z,94100.13
2023-03-11T03:25:05.948Z,94098.41
2023-03-11T03:27:34.770Z,94090.41
2023-03-11T03:30:01.436Z,94089.63
2023-03-11T03:32:28.449Z,94071.59
2023-03-11T03:34:55.102Z,94066.22
2023-03-11T03:37:21.708Z,94055.81
2023-03-11T03:39:48.341Z,94047.59
2023-03-11T03:42:14.989Z,94057.19
2023-03-11T03:44:41.609Z,94068.59
2023-03-11T03:47:08.271Z,94050.59
2023-03-11T03:49:34.885Z,94039.44
2023-03-11T03:52:01.493Z,94061.06
2023-03-11T03:54:28.122Z,94065.91
2023-03-11T03:56:54.753Z,94058.25
2023-03-11T03:59:21.597Z,94042.66
2023-03-11T04:01:48.200Z,94045.75
2023-03-11T04:04:14.896Z,94050.47
2023-03-11T04:06:43.040Z,94056.16
2023-03-11T04:09:11.891Z,94036.50
2023-03-11T04:11:39.015Z,94017.88
2023-03-11T04:14:06.072Z,93994.09
2023-03-11T04:16:33.582Z,94019.31
2023-03-11T04:19:00.217Z,94053.16
2023-03-11T04:21:26.850Z,94048.63
2023-03-11T04:23:53.533Z,94059.16
2023-03-11T04:26:20.135Z,94060.84
2023-03-11T04:28:46.783Z,94044.72
2023-03-11T04:31:13.493Z,94052.13
2023-03-11T04:33:40.123Z,94063.13
2023-03-11T04:36:09.141Z,94058.28
2023-03-11T04:38:36.268Z,94047.34
2023-03-11T04:41:05.767Z,94007.50
2023-03-11T04:43:33.560Z,94037.09
2023-03-11T04:46:00.441Z,94065.06
2023-03-11T04:48:27.137Z,94058.13
2023-03-11T04:50:53.956Z,94061.19
2023-03-11T04:53:20.562Z,94040.47
2023-03-11T04:55:47.236Z,94049.25
2023-03-11T04:58:14.193Z,94052.91
2023-03-11T05:00:40.873Z,94040.16
2023-03-11T05:03:07.524Z,94057.22
2023-03-11T05:05:34.341Z,94073.41
2023-03-11T05:08:00.957Z,94076.03
2023-03-11T05:10:27.873Z,94044.09
2023-03-11T05:12:55.211Z,94044.69
2023-03-11T05:15:21.880Z,94061.78
2023-03-11T05:17:48.501Z,94056.38
2023-03-11T05:20:15.971Z,94056.88
2023-03-11T05:22:43.186Z,94055.34
2023-03-11T05:25:10.009Z,94045.03
2023-03-11T05:27:36.701Z,94060.84
2023-03-11T05:30:04.320Z,94061.06
2023-03-11T05:32:31.201Z,94051.63
2023-03-11T05:34:57.857Z,94053.28
2023-03-11T05:37:24.586Z,94054.97
2023-03-11T05:39:52.906Z,94062.13
2023-03-11T05:42:21.375Z,94061.59
2023-03-11T05:44:48.619Z,94073.59
2023-03-11T05:47:17.173Z,94061.50
2023-03-11T05:49:43.820Z,94060.91
2023-03-11T05:52:10.436Z,94065.47
2023-03-11T05:54:37.065Z,94066.75
2023-03-11T05:57:03.843Z,94063.44
2023-03-11T05:59:30.492Z,94073.16
2023-03-11T06:01:57.180Z,94064.84
2023-03-11T06:04:24.591Z,94076.72
2023-03-11T06:06:51.301Z,94083.69
2023-03-11T06:09:17.922Z,94086.19
2023-03-11T06:11:44.596Z,94091.56
2023-03-11T06:14:13.700Z,94095.41
2023-03-11T06:16:40.883Z,94095.22
2023-03-11T06:19:07.820Z,94090.88
2023-03-11T06:21:34.468Z,94097.25
2023-03-11T06:24:01.252Z,94101.16
2023-03-11T06:26:28.344Z,94082.88
2023-03-11T06:28:54.988Z,94073.41
2023-03-11T06:31:28.384Z,94078.75
2023-03-11T06:33:55.820Z,94085.13
2023-03-11T06:36:23.089Z,94095.53
2023-03-11T06:38:53.075Z,94083.25
2023-03-11T06:41:20.081Z,94083.25
2023-03-11T06:43:49.651Z,94086.78
2023-03-11T06:46:20.414Z,94086.22
2023-03-11T06:48:47.510Z,94081.78
2023-03-11T06:51:14.550Z,94072.91
2023-03-11T06:53:41.169Z,94088.31
2023-03-11T06:56:09.656Z,94087.63
2023-03-11T06:58:38.253Z,94083.38
2023-03-11T07:01:11.413Z,94078.25
2023-03-11T07:03:39.127Z,94087.41
2023-03-11T07:06:06.844Z,94097.22
2023-03-11T07:08:33.611Z,94106.19
2023-03-11T07:11:14.750Z,94106.47
2023-03-11T07:13:41.847Z,94090.88
2023-03-11T07:16:12.646Z,94091.97
2023-03-11T07:18:39.401Z,94086.13
2023-03-11T07:21:07.857Z,94092.13
2023-03-11T07:23:35.795Z,94100.91
2023-03-11T07:26:02.497Z,94100.56
2023-03-11T07:28:29.545Z,94118.88
2023-03-11T07:30:56.932Z,94118.75
2023-03-11T07:33:24.170Z,94123.66
2023-03-11T07:35:51.623Z,94115.69
2023-03-11T07:38:18.343Z,94113.06
2023-03-11T07:40:45.280Z,94124.59
2023-03-11T07:43:12.060Z,94122.88
2023-03-11T07:45:38.862Z,94122.44
2023-03-11T07:48:06.535Z,94124.97
2023-03-11T07:50:33.232Z,94129.00
2023-03-11T07:53:00.023Z,94134.22
2023-03-11T07:55:26.708Z,94132.66
2023-03-11T07:57:53.421Z,94127.09
2023-03-11T08:00:20.342Z,94132.25
2023-03-11T08:02:47.061Z,94125.78
2023-03-11T08:05:13.859Z,94139.63
2023-03-11T08:07:40.494Z,94142.56
2023-03-11T08:10:10.649Z,94141.19
2023-03-11T08:12:37.257Z,94152.16
2023-03-11T08:15:04.248Z,94157.75
2023-03-11T08:17:30.863Z,94174.31
2023-03-11T08:19:57.605Z,94184.44
2023-03-11T08:22:24.417Z,94205.06
2023-03-11T08:24:52.435Z,94210.44
2023-03-11T08:27:19.102Z,94212.09
2023-03-11T08:29:45.718Z,94216.50
2023-03-11T08:32:12.429Z,94226.22
2023-03-11T08:34:39.125Z,94223.75
2023-03-11T08:37:05.768Z,94232.91
2023-03-11T08:39:32.405Z,94249.13
2023-03-11T08:41:59.020Z,94242.75
2023-03-11T08:44:25.605Z,94243.50
2023-03-11T08:46:52.250Z,94249.69
2023-03-11T08:49:18.872Z,94245.88
2023-03-11T08:51:45.589Z,94253.00
2023-03-11T08:54:12.233Z,94251.13
2023-03-11T08:56:38.942Z,94257.81
2023-03-11T08:59:05.555Z,94249.94
2023-03-11T09:01:32.190Z,94249.31
2023-03-11T09:03:58.810Z,94259.53
2023-03-11T09:06:25.525Z,94260.34
2023-03-11T09:08:52.175Z,94272.88
2023-03-11T09:11:19.487Z,94279.00
2023-03-11T09:13:46.141Z,94285.06
2023-03-11T09:16:16.382Z,94293.66
2023-03-11T09:18:43.240Z,94284.38
2023-03-11T09:21:10.149Z,94295.75
2023-03-11T09:23:37.003Z,94299.50
2023-03-11T09:26:03.870Z,94299.00
2023-03-11T09:28:30.633Z,94304.66
2023-03-11T09:30:57.866Z,94302.75
2023-03-11T09:33:24.879Z,94304.22
2023-03-11T09:35:51.678Z,94304.81
2023-03-11T09:38:18.320Z,94310.06
2023-03-11T09:41:23.297Z,94304.78
2023-03-11T09:44:04.268Z,94302.13
2023-03-11T09:47:04.398Z,94310.22
2023-03-11T09:50:02.885Z,94313.03
2023-03-11T09:52:58.717Z,94310.28
2023-03-11T09:55:48.377Z,94313.09
2023-03-11T09:58:17.823Z,94312.25
2023-03-11T10:00:45.721Z,94310.44
2023-03-11T10:03:37.385Z,94326.53
2023-03-11T10:06:16.432Z,94323.63
2023-03-11T10:08:48.676Z,94322.75
2023-03-11T10:11:18.182Z,94313.31
2023-03-11T10:13:53.817Z,94312.13
2023-03-11T10:16:35.762Z,94316.41
2023-03-11T10:19:18.613Z,94318.44
2023-03-11T10:21:45.189Z,94319.44
2023-03-11T10:24:37.968Z,94327.06
2023-03-11T10:27:45.702Z,94325.31
2023-03-11T10:30:33.770Z,94325.00
2023-03-11T10:33:13.889Z,94331.72
2023-03-11T10:35:44.125Z,94339.00
2023-03-11T10:38:18.271Z,94344.50
2023-03-11T10:40:47.988Z,94338.28
2023-03-11T10:43:24.829Z,94341.69
2023-03-11T10:45:54.003Z,94344.84
2023-03-11T10:48:22.457Z,94349.75
2023-03-11T10:51:02.724Z,94344.94
2023-03-11T10:53:30.594Z,94345.88
2023-03-11T10:55:59.722Z,94344.19
2023-03-11T10:58:32.342Z,94343.09
2023-03-11T11:01:17.101Z,94335.16
2023-03-11T11:03:50.268Z,94333.25
2023-03-11T11:06:35.747Z,94320.84
2023-03-11T11:09:18.104Z,94327.28
2023-03-11T11:11:59.955Z,94329.59
2023-03-11T11:14:26.729Z,94336.28
2023-03-11T11:16:55.312Z,94352.19
2023-03-11T11:19:22.257Z,94342.00
2023-03-11T11:21:50.421Z,94347.94
2023-03-11T11:24:25.388Z,94353.09
2023-03-11T11:27:11.367Z,94338.75
2023-03-11T11:29:38.183Z,94340.47
2023-03-11T11:32:17.061Z,94345.41
2023-03-11T11:34:57.053Z,94351.19
2023-03-11T11:37:25.604Z,94344.19
2023-03-11T11:39:59.112Z,94342.66
2023-03-11T11:42:31.041Z,94341.28
2023-03-11T11:45:05.609Z,94337.31
2023-03-11T11:47:39.864Z,94332.38
2023-03-11T11:50:18.299Z,94336.16
2023-03-11T11:52:55.820Z,94328.09
2023-03-11T11:55:29.685Z,94337.38
2023-03-11T11:57:57.602Z,94342.19
2023-03-11T12:00:48.153Z,94341.53
2023-03-11T12:03:53.599Z,94338.16
2023-03-11T12:06:46.345Z,94348.75
2023-03-11T12:09:28.240Z,94340.06
2023-03-11T12:12:08.405Z,94339.97
2023-03-11T12:14:55.295Z,94338.16
2023-03-11T12:17:25.928Z,94343.13
2023-03-11T12:20:07.769Z,94345.47
2023-03-11T12:23:01.677Z,94331.28
2023-03-11T12:25:37.308Z,94328.00
2023-03-11T12:28:37.086Z,94321.38
2023-03-11T12:31:09.215Z,94320.19
2023-03-11T12:33:41.079Z,94322.44
2023-03-11T12:36:41.075Z,94325.16
2023-03-11T12:39:22.488Z,94326.66
2023-03-11T12:42:09.513Z,94327.03
2023-03-11T12:44:36.851Z,94330.53
2023-03-11T12:47:12.409Z,94329.19
2023-03-11T12:49:45.502Z,94321.19
2023-03-11T12:52:12.380Z,94314.94
2023-03-11T12:54:40.181Z,94316.50
2023-03-11T12:57:44.227Z,94314.47
2023-03-11T13:00:41.940Z,94316.06
2023-03-11T13:03:32.788Z,94313.44
2023-03-11T13:06:13.161Z,94314.66
2023-03-11T13:08:53.597Z,94314.19
2023-03-11T13:11:49.324Z,94314.00
2023-03-11T13:14:26.379Z,94303.31
2023-03-11T13:16:53.981Z,94307.06
2023-03-11T13:19:53.768Z,94308.31
2023-03-11T13:22:39.233Z,94320.69
2023-03-11T13:25:40.180Z,94314.28
2023-03-11T13:28:25.108Z,94311.22
2023-03-11T13:31:13.707Z,94322.09
2023-03-11T13:33:54.418Z,94327.59
2023-03-11T13:36:30.052Z,94343.19
2023-03-11T13:39:14.837Z,94341.25
2023-03-11T13:41:43.989Z,94340.72
2023-03-11T13:44:19.718Z,94327.56
2023-03-11T13:46:56.812Z,94337.16
2023-03-11T13:49:28.089Z,94342.91
2023-03-11T13:51:57.457Z,94342.53
2023-03-11T13:54:59.573Z,94345.31
2023-03-11T13:57:31.600Z,94357.69
2023-03-11T14:00:15.737Z,94364.63
2023-03-11T14:02:49.716Z,94359.59
2023-03-11T14:05:22.889Z,94359.44
2023-03-11T14:07:49.890Z,94359.97
2023-03-11T14:10:17.921Z,94367.75
2023-03-11T14:12:46.256Z,94366.94
2023-03-11T14:15:24.465Z,94362.25
2023-03-11T14:17:53.605Z,94370.38
2023-03-11T14:20:23.471Z,94366.25
2023-03-11T14:22:53.271Z,94362.31
2023-03-11T14:25:25.654Z,94365.81
2023-03-11T14:28:19.609Z,94371.41
2023-03-11T14:30:57.748Z,94376.97
2023-03-11T14:33:25.357Z,94382.66
2023-03-11T14:35:55.503Z,94382.38
2023-03-11T14:38:28.598Z,94379.91
2023-03-11T14:41:02.617Z,94369.34
2023-03-11T14:43:37.528Z,94370.03
2023-03-11T14:46:07.634Z,94375.41
2023-03-11T14:48:39.364Z,94374.25
2023-03-11T14:51:17.981Z,94386.97
2023-03-11T14:54:05.990Z,94386.97
2023-03-11T14:56:39.675Z,94381.16
2023-03-11T14:59:22.553Z,94385.47
2023-03-11T15:01:51.299Z,94379.78
2023-03-11T15:04:33.202Z,94390.19
2023-03-11T15:07:03.713Z,94385.72
2023-03-11T15:09:32.166Z,94385.50
2023-03-11T15:12:01.962Z,94386.63
2023-03-11T15:14:34.631Z,94382.41
2023-03-11T15:17:35.359Z,94391.53
2023-03-11T15:20:29.010Z,94389.84
2023-03-11T15:22:58.713Z,94395.84
2023-03-11T15:25:25.512Z,94401.63
2023-03-11T15:27:52.509Z,94401.75
2023-03-11T15:30:31.088Z,94399.47
2023-03-11T15:32:59.022Z,94404.25
2023-03-11T15:35:30.843Z,94407.47
2023-03-11T15:38:23.770Z,94417.31
2023-03-11T15:41:02.369Z,94419.03
2023-03-11T15:43:33.668Z,94417.81
2023-03-11T15:46:02.973Z,94414.25
2023-03-11T15:48:29.986Z,94420.63
2023-03-11T15:50:59.382Z,94413.25
2023-03-11T15:53:28.413Z,94408.19
2023-03-11T15:56:07.515Z,94416.28
2023-03-11T15:58:36.953Z,94420.53
2023-03-11T16:01:03.727Z,94421.44
2023-03-11T16:03:31.569Z,94423.38
2023-03-11T16:05:58.368Z,94420.81
2023-03-11T16:08:25.086Z,94431.28
2023-03-11T16:10:51.897Z,94415.00
2023-03-11T16:13:18.909Z,94423.19
2023-03-11T16:15:45.917Z,94426.63
2023-03-11T16:18:13.145Z,94432.06
2023-03-11T16:20:51.967Z,94439.44
2023-03-11T16:23:21.501Z,94436.81
2023-03-11T16:25:49.342Z,94435.88
2023-03-11T16:28:17.264Z,94447.47
2023-03-11T16:30:44.912Z,94442.78
2023-03-11T16:33:11.546Z,94456.63
2023-03-11T16:35:38.646Z,94456.75
2023-03-11T16:38:07.252Z,94467.75
2023-03-11T16:40:33.973Z,94467.06
2023-03-11T16:43:04.416Z,94467.75
2023-03-11T16:45:31.509Z,94481.88
2023-03-11T16:47:58.178Z,94482.75
2023-03-11T16:50:25.262Z,94493.53
2023-03-11T16:52:55.746Z,94489.75
2023-03-11T16:55:24.740Z,94472.31
2023-03-11T16:57:51.409Z,94486.47
2023-03-11T17:00:18.618Z,94481.28
2023-03-11T17:02:45.306Z,94478.44
2023-03-11T17:05:12.712Z,94483.78
2023-03-11T17:07:40.390Z,94482.75
2023-03-11T17:10:09.401Z,94490.56
2023-03-11T17:12:37.740Z,94498.25
2023-03-11T17:15:06.538Z,94493.06
2023-03-11T17:17:33.257Z,94500.28
2023-03-11T17:19:59.921Z,94495.00
2023-03-11T17:22:26.605Z,94496.72
2023-03-11T17:24:53.343Z,94497.09
2023-03-11T17:27:19.958Z,94499.50
2023-03-11T17:29:46.628Z,94494.16
2023-03-11T17:32:15.762Z,94497.50
2023-03-11T17:34:43.717Z,94499.78
2023-03-11T17:37:10.377Z,94507.72
2023-03-11T17:39:36.992Z,94493.28
2023-03-11T17:42:03.873Z,94503.59
2023-03-11T17:44:44.641Z,94500.38
2023-03-11T17:47:17.065Z,94514.16
2023-03-11T17:49:43.696Z,94526.41
2023-03-11T17:52:10.323Z,94546.63
2023-03-11T17:54:36.928Z,94540.75
2023-03-11T17:57:03.770Z,94550.16
2023-03-11T17:59:30.413Z,94541.56
2023-03-11T18:01:57.111Z,94536.47
2023-03-11T18:04:23.844Z,94558.69
2023-03-11T18:06:50.580Z,94562.16
2023-03-11T18:09:17.201Z,94551.28
2023-03-11T18:11:43.888Z,94563.94
2023-03-11T18:14:10.553Z,94570.56
2023-03-11T18:16:37.418Z,94558.63
2023-03-11T18:19:05.021Z,94558.25
2023-03-11T18:21:32.365Z,94559.81
2023-03-11T18:24:00.653Z,94563.44
2023-03-11T18:26:29.891Z,94560.06
2023-03-11T18:28:58.268Z,94568.38
2023-03-11T18:31:26.741Z,94571.59
2023-03-11T18:33:56.948Z,94569.38
2023-03-11T18:36:32.761Z,94573.41
2023-03-11T18:39:00.620Z,94579.38
2023-03-11T18:41:31.923Z,94580.69
2023-03-11T18:43:59.079Z,94578.28
2023-03-11T18:46:28.798Z,94583.31
2023-03-11T18:48:56.969Z,94582.94
2023-03-11T18:51:25.052Z,94582.16
2023-03-11T18:53:51.694Z,94580.03
2023-03-11T18:56:19.125Z,94591.41
2023-03-11T18:58:46.780Z,94594.91
2023-03-11T19:01:16.675Z,94589.00
2023-03-11T19:03:45.212Z,94596.66
2023-03-11T19:06:13.035Z,94615.84
2023-03-11T19:08:40.396Z,94605.63
2023-03-11T19:11:13.973Z,94614.22
2023-03-11T19:13:47.026Z,94613.56
2023-03-11T19:16:18.152Z,94622.53
2023-03-11T19:18:46.176Z,94634.66
2023-03-11T19:21:15.437Z,94634.97
2023-03-11T19:23:42.459Z,94639.47
2023-03-11T19:26:09.193Z,94636.78
2023-03-11T19:28:35.910Z,94632.94
2023-03-11T19:31:03.129Z,94637.94
2023-03-11T19:33:29.912Z,94639.34
2023-03-11T19:36:00.430Z,94630.75
2023-03-11T19:38:28.977Z,94629.97
2023-03-11T19:41:14.794Z,94622.44
2023-03-11T19:43:42.168Z,94618.94
2023-03-11T19:46:12.014Z,94615.88
2023-03-11T19:48:38.760Z,94620.44
2023-03-11T19:51:05.920Z,94629.13
2023-03-11T19:53:33.205Z,94649.75
2023-03-11T19:56:00.027Z,94645.25
2023-03-11T19:58:30.414Z,94646.00
2023-03-11T20:00:58.171Z,94653.72
2023-03-11T20:03:26.012Z,94661.72
2023-03-11T20:05:53.236Z,94655.13
2023-03-11T20:08:21.480Z,94659.53
2023-03-11T20:10:50.485Z,94650.66
2023-03-11T20:13:19.210Z,94648.75
2023-03-11T20:15:46.744Z,94641.31
2023-03-11T20:18:13.557Z,94652.69
2023-03-11T20:20:40.332Z,94651.00
2023-03-11T20:23:07.089Z,94650.41
2023-03-11T20:25:41.321Z,94661.22
2023-03-11T20:28:08.729Z,94654.81
2023-03-11T20:30:38.286Z,94656.00
2023-03-11T20:33:05.400Z,94659.69
2023-03-11T20:35:32.120Z,94665.09
2023-03-11T20:37:59.252Z,94665.09
2023-03-11T20:40:26.075Z,94670.03
2023-03-11T20:42:52.713Z,94677.25
2023-03-11T20:45:19.336Z,94682.94
2023-03-11T20:47:45.990Z,94683.59
2023-03-11T20:50:13.014Z,94690.41
2023-03-11T20:52:40.017Z,94686.84
2023-03-11T20:55:07.763Z,94698.22
2023-03-11T20:57:34.407Z,94697.88
2023-03-11T21:00:01.158Z,94700.81
2023-03-11T21:02:27.900Z,94709.22
2023-03-11T21:04:54.633Z,94706.25
2023-03-11T21:07:21.407Z,94706.47
2023-03-11T21:09:48.188Z,94702.56
2023-03-11T21:12:14.942Z,94708.84
2023-03-11T21:14:41.600Z,94710.16
2023-03-11T21:17:08.467Z,94709.25
2023-03-11T21:19:35.314Z,94713.56
2023-03-11T21:22:02.037Z,94712.13
2023-03-11T21:24:28.746Z,94720.00
2023-03-11T21:26:55.497Z,94712.38
2023-03-11T21:29:22.176Z,94723.22
2023-03-11T21:31:48.881Z,94723.13
2023-03-11T21:34:15.636Z,94719.84
2023-03-11T21:36:42.529Z,94725.25
2023-03-11T21:39:09.276Z,94729.03
2023-03-11T21:41:35.901Z,94737.84
2023-03-11T21:44:02.718Z,94730.13
2023-03-11T21:46:31.610Z,94741.88
2023-03-11T21:48:59.658Z,94738.38
2023-03-11T21:51:27.584Z,94748.81
2023-03-11T21:53:54.424Z,94745.03
2023-03-11T21:56:21.277Z,94756.13
2023-03-11T21:58:48.038Z,94749.69
2023-03-11T22:01:14.871Z,94750.44
2023-03-11T22:03:42.080Z,94747.91
2023-03-11T22:06:11.823Z,94754.25
2023-03-11T22:08:39.106Z,94756.50
2023-03-11T22:11:11.851Z,94758.28
2023-03-11T22:13:38.640Z,94751.22
2023-03-11T22:16:06.793Z,94762.16
2023-03-11T22:18:33.680Z,94761.16
2023-03-11T22:21:00.968Z,94762.69
2023-03-11T22:23:28.149Z,94768.47
2023-03-11T22:25:54.970Z,94769.78
2023-03-11T22:28:22.684Z,94772.72
2023-03-11T22:30:49.372Z,94768.38
2023-03-11T22:33:16.012Z,94763.84
2023-03-11T22:35:50.256Z,94778.66
2023-03-11T22:38:17.079Z,94782.03
2023-03-11T22:40:43.828Z,94796.25
2023-03-11T22:43:10.559Z,94797.16
2023-03-11T22:45:37.234Z,94804.69
2023-03-11T22:48:04.000Z,94809.69
2023-03-11T22:50:31.027Z,94813.63
2023-03-11T22:52:57.658Z,94822.63
2023-03-11T22:55:24.297Z,94825.72
2023-03-11T22:57:51.004Z,94825.44
2023-03-11T23:00:21.892Z,94810.00
2023-03-11T23:02:53.322Z,94825.84
2023-03-11T23:05:20.517Z,94825.22
2023-03-11T23:07:47.493Z,94828.63
2023-03-11T23:10:15.799Z,94826.38
2023-03-11T23:12:43.242Z,94814.44
2023-03-11T23:15:14.271Z,94810.56
2023-03-11T23:17:41.655Z,94816.50
2023-03-11T23:20:14.868Z,94816.06
2023-03-11T23:22:42.507Z,94814.81
2023-03-11T23:25:14.769Z,94816.38
2023-03-11T23:27:42.352Z,94819.19
2023-03-11T23:30:12.888Z,94822.06
2023-03-11T23:32:39.636Z,94824.28
2023-03-11T23:35:06.896Z,94822.78
2023-03-11T23:37:33.520Z,94817.31
2023-03-11T23:40:00.191Z,94818.47
2023-03-11T23:42:26.821Z,94817.94
2023-03-11T23:44:54.178Z,94820.22
2023-03-11T23:47:20.868Z,94827.47
2023-03-11T23:49:47.500Z,94823.25
2023-03-11T23:52:14.179Z,94824.31
2023-03-11T23:54:40.861Z,94812.69
2023-03-11T23:57:07.819Z,94811.59
2023-03-11T23:59:34.565Z,94830.03
